Currently 50°F in Riverside (Presidential Park), California, USA
50°F
51°F / 50°F
calm
0.00"
Tuesday, December 10, 2019 12:51 AM PST

Riverside (Presidential Park), California Weather Summary
Last 36 Hours

Temperature Winds Hourly Humidity Dewpoint
Time Report Norm Report Norm Max Gusts Precip. Rpt. Norm Rpt. Norm Pressure
1Tue 12:51 AM  50.1°F  52°F  calm  1 mph  2 mph  0.00"  86%  69%  46°F  41°F  30.13"
3Tue 12:50 AM  49.9°F  52°F  calm  1 mph  3 mph  ----  86%  69%  46°F  41°F  30.13"
2Tue 12:21 AM  50.8°F  52°F  2 mph SE  2 mph  3 mph  ----  86%  68%  46°F  41°F  30.13"
Tue 12:00 AM  50.6°F  52°F  1 mph E  2 mph  2 mph  0.00"  84%  68%  46°F  41°F  30.14"
Mon 11:00 PM  51.6°F  53°F  calm  2 mph  4 mph  0.00"  83%  67%  46°F  42°F  30.12"
Mon 10:00 PM  52.5°F  54°F  3 mph E  2 mph  5 mph  0.00"  81%  66%  47°F  42°F  30.11"
Mon 09:00 PM  53.2°F  55°F  1 mph NE  2 mph  5 mph  0.00"  79%  64%  47°F  42°F  30.10"
Mon 08:00 PM  55.4°F  56°F  calm  2 mph  3 mph  0.00"  75%  61%  47°F  43°F  30.09"
Mon 07:00 PM  57.0°F  58°F  calm  2 mph  5 mph  0.00"  72%  58%  48°F  43°F  30.06"
Mon 06:00 PM  60.8°F  60°F  3 mph SW  2 mph  7 mph  0.00"  63%  54%  48°F  43°F  30.05"
Mon 05:00 PM  63.2°F  63°F  3 mph W  3 mph  8 mph  0.00"  57%  48%  47°F  43°F  30.03"
Mon 04:00 PM  65.9°F  66°F  5 mph W  4 mph  10 mph  0.00"  52%  43%  47°F  42°F  30.01"
Mon 03:00 PM  66.0°F  67°F  6 mph W  5 mph  11 mph  0.00"  50%  41%  46°F  42°F  30.01"
Mon 02:00 PM  65.5°F  67°F  6 mph SW  4 mph  11 mph  0.00"  56%  41%  49°F  42°F  30.01"
Mon 01:00 PM  63.4°F  67°F  7 mph W  4 mph  13 mph  0.00"  67%  41%  52°F  42°F  30.01"
Mon 12:00 PM  61.4°F  65°F  4 mph W  3 mph  14 mph  0.00"  70%  44%  51°F  42°F  30.03"
Mon 11:00 AM  57.5°F  63°F  4 mph SW  3 mph  7 mph  0.00"  86%  50%  53°F  43°F  30.06"
Mon 10:00 AM  53.7°F  60°F  1 mph S  3 mph  5 mph  0.00"  93%  56%  52°F  43°F  30.07"
Mon 09:00 AM  52.3°F  56°F  2 mph SW  2 mph  4 mph  0.00"  93%  63%  50°F  43°F  30.07"
Mon 08:00 AM  50.6°F  51°F  calm  1 mph  4 mph  0.00"  93%  70%  49°F  41°F  30.04"
Mon 07:00 AM  50.0°F  49°F  calm  2 mph  3 mph  0.00"  93%  71%  48°F  40°F  30.02"
Mon 06:00 AM  50.9°F  49°F  calm  2 mph  2 mph  0.00"  92%  71%  49°F  40°F  30.01"
Mon 05:00 AM  51.9°F  50°F  calm  2 mph  3 mph  0.00"  92%  71%  50°F  40°F  30.00"
Mon 04:00 AM  53.4°F  50°F  1 mph SE  2 mph  3 mph  0.00"  92%  70%  51°F  41°F  30.00"
Mon 03:00 AM  52.9°F  51°F  calm  2 mph  2 mph  0.00"  91%  70%  50°F  41°F  30.00"
Mon 02:00 AM  52.9°F  51°F  calm  2 mph  3 mph  0.00"  91%  70%  50°F  41°F  29.99"
Mon 01:00 AM  54.0°F  52°F  calm  1 mph  2 mph  0.01"  90%  69%  51°F  42°F  30.01"
Mon 12:00 AM  54.8°F  53°F  calm  2 mph  2 mph  0.00"  90%  68%  52°F  42°F  30.01"
Sun 11:00 PM  54.8°F  53°F  2 mph SE  2 mph  3 mph  0.00"  89%  67%  52°F  42°F  30.01"
Sun 10:00 PM  54.9°F  54°F  1 mph E  2 mph  4 mph  0.00"  89%  66%  51°F  42°F  30.00"
Sun 09:00 PM  55.7°F  55°F  calm  2 mph  5 mph  0.00"  88%  64%  52°F  43°F  29.98"
Sun 08:00 PM  56.3°F  56°F  calm  2 mph  7 mph  0.00"  87%  62%  52°F  43°F  29.98"
Sun 07:00 PM  57.6°F  58°F  2 mph NW  2 mph  6 mph  0.00"  86%  58%  53°F  43°F  29.98"
Sun 06:00 PM  58.3°F  61°F  1 mph SW  2 mph  6 mph  0.00"  85%  55%  54°F  44°F  29.97"
Sun 05:00 PM  59.2°F  63°F  2 mph W  3 mph  10 mph  0.00"  84%  49%  54°F  43°F  29.97"
Sun 04:00 PM  59.4°F  66°F  8 mph W  4 mph  17 mph  0.00"  85%  44%  55°F  43°F  29.98"
Sun 03:00 PM  62.2°F  67°F  10 mph SW  4 mph  15 mph  0.00"  71%  42%  52°F  42°F  29.96"
Sun 02:00 PM  64.3°F  67°F  6 mph W  4 mph  12 mph  0.00"  64%  42%  51°F  42°F  29.96"
Sun 01:00 PM  63.6°F  67°F  4 mph W  4 mph  10 mph  0.00"  69%  42%  53°F  42°F  29.97"
Sun 12:00 PM  62.9°F  66°F  3 mph W  3 mph  8 mph  0.00"  75%  44%  55°F  43°F  30.01"

  1. Current weather data. No green row appears if the current weather data is also the high or low for the current day.
  2. High temperature for the current day.
  3. Low temperature for the current day.

The Riverside (Presidential Park), California weather pages are a service of WeatherCurrents.
Copyright ©2019  WeatherCurrents. All rights reserved. - Submit questions and comments - Privacy Policy

This page automatically refreshes every 10 minutes.